• Join FlightAware (Why Join?)
  • Login
  • US Flag 
08:32PM EDT


 

Airport Tracker/Info


-or-


 

Live Flight TrackerFlight Track Log ✈ N55GP ✈ 07-May-2013 ✈ KOPF - MDJB / JBQ

Flight Track Log - Related Links

Times and Time Zones

All times are in EDT time to prevent confusion due to time zone crossing. See the N55GP flight status page for this flight to view local times or setup timezone preferences in your user account.

Time Position Orientation Groundspeed Altitude Reporting Facility
EDT Latitude Longitude Course Direction KTS MPH feet Rate Location/Type
10:09AM 25.9064 -80.2892 300° West 146 168 400  Level Miami Center
10:11AM 25.9344 -80.3431 300° West 179 206 3,600 2,580 Climbing Miami Center
10:13AM 25.9789 -80.2242 67° East 139 160 8,800 2,580 Climbing Miami Center
10:14AM 25.9769 -80.1339 91° East 245 282 11,500 2,640 Climbing Miami Center
10:15AM 25.9789 -80.0392 89° East 271 312 14,100 2,520 Climbing Miami Center
10:16AM 25.9769 -79.9422 91° East 298 343 16,600 2,340 Climbing Miami Center
10:17AM 25.9706 -79.8403 94° East 317 365 18,800 2,100 Climbing Miami Center
10:18AM 25.9706 -79.7364 90° East 322 371 20,800 1,980 Climbing Miami Center
10:19AM 25.9664 -79.6278 92° East 335 386 22,800 1,980 Climbing Miami Center
10:20AM 25.9539 -79.5072 97° East 353 406 24,800 1,800 Climbing Miami Center
10:21AM 25.9075 -79.4253 122° Southeast 347 399 26,500 1,740 Climbing Miami Center
10:22AM 25.8444 -79.3225 124° Southeast 358 412 28,300 1,560 Climbing Miami Center
10:23AM 25.7894 -79.2289 123° Southeast 363 418 29,700 1,500 Climbing Miami Center
10:24AM 25.7283 -79.1333 125° Southeast 368 423 31,300 1,500 Climbing Miami Center
10:25AM 25.6733 -79.0353 122° Southeast 373 429 32,800 1,320 Climbing Miami Center
10:26AM 25.6161 -78.9583 130° Southeast 384 442 34,000 1,380 Climbing Miami Center
10:27AM 25.5486 -78.8558 126° Southeast 384 442 35,600 1,440 Climbing Miami Center
10:28AM 25.4850 -78.7603 126° Southeast 384 442 36,900 1,260 Climbing Miami Center
10:29AM 25.4256 -78.6628 124° Southeast 389 448 38,200 1,140 Climbing Miami Center
10:30AM 25.3642 -78.5653 125° Southeast 389 448 39,200 960 Climbing Miami Center
10:31AM 25.3003 -78.4678 126° Southeast 389 448 40,200 900 Climbing Miami Center
10:32AM 25.2367 -78.3706 126° Southeast 389 448 41,100 840 Climbing Miami Center
10:33AM 25.1708 -78.2733 127° Southeast 389 448 41,900 780 Climbing Miami Center
10:34AM 25.1111 -78.1739 124° Southeast 389 448 42,700 720 Climbing Miami Center
10:35AM 25.0450 -78.0769 127° Southeast 389 448 43,400 600 Climbing Miami Center
10:36AM 24.9789 -77.9775 126° Southeast 389 448 43,900 480 Climbing Miami Center
10:37AM 24.9147 -77.8761 125° Southeast 389 448 44,400 480 Climbing Miami Center
10:38AM 24.8486 -77.7772 126° Southeast 395 455 44,900 300 Climbing Miami Center
10:39AM 24.7781 -77.6736 127° Southeast 406 467 45,000  Climbing Miami Center
10:40AM 24.7097 -77.5633 124° Southeast 426 490 45,000  Level Miami Center
10:41AM 24.6369 -77.4533 126° Southeast 432 497 45,000  Level Miami Center
10:42AM 24.5664 -77.3408 125° Southeast 438 504 45,000  Level Miami Center
10:43AM 24.4936 -77.2289 126° Southeast 444 511 45,000  Level Miami Center
10:44AM 24.4186 -77.1236 128° Southeast 449 517 45,000  Level Miami Center
10:45AM 24.3478 -77.0117 125° Southeast 449 517 45,000  Level Miami Center
10:46AM 24.2725 -76.9044 128° Southeast 449 517 45,000  Level Miami Center
10:47AM 24.2036 -76.7906 124° Southeast 449 517 45,000  Level Miami Center
10:48AM 24.1322 -76.6858 127° Southeast 444 511 45,000  Level Miami Center
10:49AM 24.0611 -76.5767 125° Southeast 439 505 45,000  Level Miami Center
10:50AM 23.9878 -76.4700 127° Southeast 439 505 45,000  Level Miami Center
10:51AM 23.9183 -76.3656 126° Southeast 431 496 45,000  Level Miami Center
10:52AM 23.8469 -76.2592 126° Southeast 431 496 45,000  Level Miami Center
10:53AM 23.7775 -76.1550 126° Southeast 431 496 45,000  Level Miami Center
10:54AM 23.7081 -76.0486 125° Southeast 431 496 45,000  Level Miami Center
10:55AM 23.6364 -75.9447 127° Southeast 431 496 45,000  Level Miami Center
10:56AM 23.5689 -75.8411 125° Southeast 431 496 45,000  Level Miami Center
10:57AM 23.4908 -75.7331 128° Southeast 436 502 45,000  Level Miami Center
10:58AM 23.4125 -75.6158 126° Southeast 442 509 45,000  Level Miami Center
10:59AM 23.3406 -75.5103 127° Southeast 436 502 45,000  Level Miami Center
11:00AM 23.2706 -75.4114 128° Southeast 425 489 45,000  Level Miami Center
11:01AM 23.2006 -75.3083 126° Southeast 425 489 45,000  Level Miami Center
11:02AM 23.1286 -75.2053 127° Southeast 425 489 45,000  Level Miami Center
11:03AM 23.0564 -75.1000 127° Southeast 425 489 45,000  Level Miami Center
11:04AM 22.9861 -74.9994 127° Southeast 430 495 45,000  Level Miami Center
11:05AM 22.9139 -74.8944 127° Southeast 430 495 45,000  Level Miami Center
11:06AM 22.8500 -74.8031 127° Southeast 430 495 45,000  Level Miami Center
11:07AM 22.7775 -74.6983 127° Southeast 430 495 45,000  Level Miami Center
11:08AM 22.7069 -74.5961 127° Southeast 430 495 45,000  Level Miami Center
11:09AM 22.6344 -74.4939 128° Southeast 430 495 45,000  Level Miami Center
11:10AM 22.5617 -74.3939 128° Southeast 430 495 45,000  Level Miami Center
11:11AM 22.4911 -74.2919 127° Southeast 430 495 45,000  Level Miami Center
11:12AM 22.4225 -74.1922 127° Southeast 430 495 45,000  Level Miami Center
11:13AM 22.3519 -74.0925 127° Southeast 430 495 45,000  Level Miami Center
11:14AM 22.2789 -73.9908 128° Southeast 430 495 45,000  Level Miami Center
11:15AM 22.2058 -73.8892 128° Southeast 430 495 45,000  Level Miami Center
11:16AM 22.1350 -73.7856 126° Southeast 430 495 45,000  Level Miami Center
11:17AM 22.0661 -73.6842 126° Southeast 425 489 45,000  Level Miami Center
11:18AM 21.9931 -73.5828 128° Southeast 425 489 45,000  Level Miami Center
11:19AM 21.9217 -73.4794 127° Southeast 435 501 45,000  Level Miami Center
11:20AM 21.8506 -73.3783 127° Southeast 435 501 45,000  Level Miami Center
11:21AM 21.7772 -73.2775 128° Southeast 430 495 45,000  Level Miami Center
11:22AM 21.7058 -73.1744 127° Southeast 430 495 45,000  Level Miami Center
11:23AM 21.6325 -73.0736 128° Southeast 430 495 45,000  Level Miami Center
11:24AM 21.5592 -72.9733 128° Southeast 430 495 45,000  Level Miami Center
11:25AM 21.4897 -72.8747 127° Southeast 430 495 45,000  Level Miami Center
11:26AM 21.4161 -72.7744 128° Southeast 430 495 45,000  Level Miami Center
11:27AM 21.3444 -72.6719 127° Southeast 430 495 45,000  Level Miami Center
11:28AM 21.2728 -72.5717 127° Southeast 430 495 45,000  Level Miami Center
11:29AM 21.1992 -72.4742 129° Southeast 430 495 45,000  Level Miami Center
11:30AM 21.1297 -72.3761 127° Southeast 430 495 45,000  Level Miami Center
11:31AM 21.0578 -72.2764 128° Southeast 430 495 45,000  Level Miami Center
11:32AM 20.9861 -72.1789 128° Southeast 430 495 45,000  Level Miami Center
11:33AM 20.9142 -72.0814 128° Southeast 430 495 45,000  Level Miami Center
11:34AM 20.8422 -71.9797 127° Southeast 430 495 45,000  Level Miami Center
11:35AM 20.7703 -71.8825 128° Southeast 430 495 45,000  Level Miami Center
11:36AM 20.6961 -71.7811 128° Southeast 430 495 45,000  Level Miami Center
11:37AM 20.6239 -71.6794 127° Southeast 430 495 45,000  Level Miami Center
11:38AM 20.5397 -71.5942 136° Southeast 430 495 45,000  Level Miami Center
11:39AM 20.4536 -71.5156 139° Southeast 415 478 45,000  Level Miami Center
11:40AM 20.3675 -71.4350 139° Southeast 415 478 45,000  Level Miami Center
11:42AM 20.2220 -71.3160 139° Southeast  Level Estimated
11:49AM 19.7614 -70.7489 139° Southeast  Level FlightAware Approximate
11:50AM 19.6859 -70.6792 139° Southeast  Level FlightAware Approximate
11:51AM 19.6104 -70.6096 139° Southeast  Level FlightAware Approximate
11:52AM 19.5373 -70.5371 137° Southeast  Level FlightAware Approximate
11:53AM 19.4645 -70.4643 137° Southeast  Level FlightAware Approximate
11:54AM 19.3918 -70.3916 137° Southeast  Level FlightAware Approximate
11:55AM 19.3190 -70.3189 137° Southeast  Level FlightAware Approximate
11:56AM 19.2462 -70.2462 137° Southeast  Level FlightAware Approximate
11:57AM 19.1735 -70.1735 137° Southeast  Level FlightAware Approximate
11:58AM 19.0903 -70.1204 164° South  Level FlightAware Approximate
11:59AM 18.9940 -70.0915 164° South  Level FlightAware Approximate
12:00PM 18.8964 -70.0693 169° South  Level FlightAware Approximate
12:01PM 18.7982 -70.0491 155° Southeast  Level FlightAware Approximate
12:02PM 18.7056 -70.0111 169° South  Level FlightAware Approximate
12:03PM 18.6074 -69.9915 169° South  Level FlightAware Approximate
12:04PM 18.5667 -69.9833 169° South  Level FlightAware Approximate
12:05PM 18.5725 -69.9856 169° South  Level Estimated
12:06PM 18.5667 -69.9833 169° South  Level FlightAware Approximate
12:07PM 18.5725 -69.9856 169° South  Level Estimated
12:08PM 18.5667 -69.9833 169° South  Level FlightAware Approximate
12:09PM 18.5725 -69.9856 169° South  Level Estimated
12:10PM 18.5667 -69.9833 169° South  Level FlightAware Approximate
12:11PM 18.5725 -69.9856 169° South  Level Estimated
12:12PM 18.5667 -69.9833 169° South  Level FlightAware Approximate
12:13PM 18.5725 -69.9856 169° South  Level Estimated
12:14PM 18.5667 -69.9833 169° South  Level FlightAware Approximate
12:15PM 18.5725 -69.9856 169° South  Level Estimated
12:16PM 18.5667 -69.9833 169° South  Level FlightAware Approximate
12:17PM 18.5725 -69.9856 169° South  Level Estimated
12:18PM 18.5667 -69.9833 169° South  Level FlightAware Approximate
12:19PM 18.5725 -69.9856 169° South  Level Estimated
12:20PM 18.5667 -69.9833 169° South  Level FlightAware Approximate
12:21PM 18.5725 -69.9856 169° South  Level Estimated
12:22PM 18.5667 -69.9833 169° South  Level FlightAware Approximate
12:23PM 18.5725 -69.9856 169° South  Level Estimated
12:24PM 18.5667 -69.9833 169° South  Level FlightAware Approximate
12:25PM 18.5725 -69.9856 169° South  Level Estimated
12:26PM 18.5667 -69.9833 169° South  Level FlightAware Approximate
12:27PM 18.5725 -69.9856 169° South  Level Estimated
12:28PM 18.5667 -69.9833 169° South  Level FlightAware Approximate